Time;durP1;ratioP1;P1;durP2;ratioP2;P2;SDS_P1;SDS_P2;PMS_P1;PMS_P2;Temp;Humidity;BMP_temperature;BMP_pressure;BME280_temperature;BME280_humidity;BME280_pressure;Samples;Min_cycle;Max_cycle;Signal;HPM_P1;HPM_P2
2022/03/20 00:01:36;;;;;;;31.95;18.15;;;;;;;;;;5036434;28;20065;-74
2022/03/20 00:04:04;;;;;;;38.05;17.38;;;;;;;;;;5035664;28;20040;-74
2022/03/20 00:06:35;;;;;;;31.63;17.13;;;;;;;;;;5035867;28;20044;-74
2022/03/20 00:09:04;;;;;;;33.38;17.63;;;;;;;;;;5035712;28;20041;-74
2022/03/20 00:11:37;;;;;;;35.33;19.50;;;;;;;;;;5036102;28;20403;-74
2022/03/20 00:14:19;;;;;;;41.85;21.77;;;;;;;;;;5035504;28;20034;-74
2022/03/20 00:17:13;;;;;;;45.03;21.50;;;;;;;;;;5017610;28;20112;-74
2022/03/20 00:19:47;;;;;;;37.85;19.92;;;;;;;;;;5035869;28;20038;-75
2022/03/20 00:22:15;;;;;;;38.15;19.52;;;;;;;;;;5034494;28;20539;-74
2022/03/20 00:24:44;;;;;;;35.70;18.15;;;;;;;;;;5035050;28;20049;-74
2022/03/20 00:27:13;;;;;;;32.92;16.77;;;;;;;;;;5034958;28;20634;-74
2022/03/20 00:29:41;;;;;;;31.30;16.15;;;;;;;;;;5016561;28;20041;-74
2022/03/20 00:32:12;;;;;;;29.85;16.10;;;;;;;;;;5035728;28;20039;-74
2022/03/20 00:34:41;;;;;;;28.70;14.63;;;;;;;;;;5034497;28;20575;-74
2022/03/20 00:37:09;;;;;;;29.38;15.45;;;;;;;;;;5035991;28;20048;-73
2022/03/20 00:39:39;;;;;;;26.90;15.45;;;;;;;;;;5035194;28;20069;-73
2022/03/20 00:42:08;;;;;;;28.80;14.68;;;;;;;;;;5035647;28;20048;-73
2022/03/20 00:44:35;;;;;;;26.48;13.82;;;;;;;;;;5034621;28;20045;-73
2022/03/20 00:47:06;;;;;;;26.17;13.38;;;;;;;;;;5016046;28;20061;-73
2022/03/20 00:49:36;;;;;;;32.17;13.88;;;;;;;;;;5035310;28;20116;-72
2022/03/20 00:52:04;;;;;;;25.58;13.38;;;;;;;;;;5035163;28;20037;-73
2022/03/20 00:54:35;;;;;;;26.25;15.02;;;;;;;;;;5035284;28;20487;-73
2022/03/20 00:57:03;;;;;;;27.85;14.98;;;;;;;;;;5017323;28;20052;-74
2022/03/20 00:59:36;;;;;;;27.80;15.65;;;;;;;;;;5034505;28;20048;-72
2022/03/20 01:02:04;;;;;;;27.83;14.30;;;;;;;;;;5035019;28;20072;-73
2022/03/20 01:04:37;;;;;;;27.77;14.73;;;;;;;;;;5034774;28;20415;-73
2022/03/20 01:07:12;;;;;;;27.63;14.65;;;;;;;;;;5035282;28;20041;-73
2022/03/20 01:09:44;;;;;;;28.20;14.50;;;;;;;;;;5034992;28;20128;-72
2022/03/20 01:12:14;;;;;;;26.08;14.30;;;;;;;;;;5034571;28;20329;-73
2022/03/20 01:14:47;;;;;;;25.38;13.15;;;;;;;;;;5034696;28;20049;-73
2022/03/20 01:17:17;;;;;;;28.38;13.10;;;;;;;;;;5033932;28;20095;-73
2022/03/20 01:19:44;;;;;;;22.60;12.02;;;;;;;;;;5124460;23;20049;-67
2022/03/20 01:22:30;;;;;;;25.00;11.98;;;;;;;;;;5017351;28;20052;-68
2022/03/20 01:24:58;;;;;;;20.23;11.50;;;;;;;;;;5034931;28;20050;-68
2022/03/20 01:27:51;;;;;;;22.13;12.15;;;;;;;;;;5034107;28;20495;-68
2022/03/20 01:30:23;;;;;;;19.27;11.25;;;;;;;;;;5035229;28;20052;-68
2022/03/20 01:32:51;;;;;;;20.60;11.65;;;;;;;;;;5032432;28;20042;-69
2022/03/20 01:35:24;;;;;;;24.05;11.63;;;;;;;;;;5035714;28;20049;-68
2022/03/20 01:37:58;;;;;;;18.60;10.07;;;;;;;;;;5034625;28;20045;-68
2022/03/20 01:40:51;;;;;;;18.38;10.10;;;;;;;;;;5035539;28;20041;-68
2022/03/20 01:43:21;;;;;;;17.38;10.77;;;;;;;;;;5035129;28;20042;-69
2022/03/20 01:45:51;;;;;;;18.23;10.50;;;;;;;;;;5034950;28;20040;-68
2022/03/20 01:48:21;;;;;;;16.85;9.77;;;;;;;;;;5017988;28;20120;-69
2022/03/20 01:50:49;;;;;;;19.58;10.68;;;;;;;;;;5016714;28;20045;-69
2022/03/20 01:53:19;;;;;;;19.50;10.13;;;;;;;;;;5034190;28;20041;-69
2022/03/20 01:55:50;;;;;;;16.90;9.80;;;;;;;;;;5034226;28;20049;-69
2022/03/20 01:58:24;;;;;;;18.75;10.20;;;;;;;;;;5034569;28;20158;-69
2022/03/20 02:00:51;;;;;;;20.52;10.07;;;;;;;;;;5034508;28;20037;-69
2022/03/20 02:03:23;;;;;;;20.90;10.98;;;;;;;;;;5016902;28;20072;-69
2022/03/20 02:06:17;;;;;;;22.17;10.45;;;;;;;;;;5017227;28;20380;-69
2022/03/20 02:08:50;;;;;;;17.58;10.38;;;;;;;;;;5034671;28;20479;-69
2022/03/20 02:11:27;;;;;;;20.00;9.93;;;;;;;;;;5034601;28;20047;-69
2022/03/20 02:14:03;;;;;;;20.52;10.85;;;;;;;;;;5034317;28;20068;-69
2022/03/20 02:16:36;;;;;;;20.17;10.65;;;;;;;;;;5016896;28;20092;-69
2022/03/20 02:19:11;;;;;;;19.92;10.65;;;;;;;;;;5015741;28;20112;-69
2022/03/20 02:21:46;;;;;;;18.15;10.60;;;;;;;;;;5032645;28;20069;-69
2022/03/20 02:24:33;;;;;;;22.00;11.00;;;;;;;;;;5032652;28;20045;-69
2022/03/20 02:27:12;;;;;;;19.30;10.95;;;;;;;;;;5033374;28;20121;-69
2022/03/20 02:29:42;;;;;;;22.00;10.85;;;;;;;;;;5033602;28;20423;-69
2022/03/20 02:32:12;;;;;;;22.42;10.50;;;;;;;;;;5033632;28;20040;-69
2022/03/20 02:34:48;;;;;;;18.33;10.07;;;;;;;;;;5033356;28;20069;-69
2022/03/20 02:37:23;;;;;;;19.40;10.70;;;;;;;;;;5033384;28;20402;-69
2022/03/20 02:39:51;;;;;;;19.42;11.10;;;;;;;;;;5033607;28;20049;-69
2022/03/20 02:42:19;;;;;;;19.58;10.90;;;;;;;;;;5033349;28;20064;-69
2022/03/20 02:44:54;;;;;;;16.90;10.15;;;;;;;;;;5033626;28;20061;-69
2022/03/20 02:47:29;;;;;;;21.33;10.85;;;;;;;;;;5033587;28;20037;-68
2022/03/20 02:50:17;;;;;;;16.05;9.70;;;;;;;;;;5033078;28;20073;-68
2022/03/20 02:52:47;;;;;;;19.95;10.52;;;;;;;;;;5033511;28;20069;-69
2022/03/20 02:55:19;;;;;;;18.17;10.68;;;;;;;;;;5033335;28;20518;-69
2022/03/20 02:57:47;;;;;;;16.95;10.23;;;;;;;;;;5037635;28;20607;-69
2022/03/20 03:00:21;;;;;;;19.00;10.45;;;;;;;;;;5039856;28;20049;-69
2022/03/20 03:02:51;;;;;;;20.73;10.77;;;;;;;;;;5039171;28;20042;-69
2022/03/20 03:05:28;;;;;;;18.45;10.68;;;;;;;;;;5040254;28;20041;-69
2022/03/20 03:10:57;;;;;;;19.08;10.77;;;;;;;;;;5039434;28;20069;-69
2022/03/20 03:13:39;;;;;;;22.08;10.90;;;;;;;;;;5039245;28;20104;-69
2022/03/20 03:16:08;;;;;;;19.35;11.10;;;;;;;;;;5038138;28;20124;-68
2022/03/20 03:18:39;;;;;;;17.10;10.20;;;;;;;;;;5039777;28;20399;-68
2022/03/20 03:21:10;;;;;;;17.88;9.70;;;;;;;;;;5038036;28;20440;-68
2022/03/20 03:23:38;;;;;;;17.27;10.13;;;;;;;;;;5038800;28;20037;-68
2022/03/20 03:26:07;;;;;;;18.63;10.30;;;;;;;;;;5039991;28;20044;-68
2022/03/20 03:28:36;;;;;;;19.45;9.90;;;;;;;;;;5021993;28;20442;-68
2022/03/20 03:31:11;;;;;;;18.40;9.90;;;;;;;;;;5039767;28;20038;-68
2022/03/20 03:35:41;;;;;;;19.48;10.25;;;;;;;;;;5039271;28;20041;-69
2022/03/20 03:36:28;;;;;;;17.45;10.32;;;;;;;;;;5038522;28;20049;-69
2022/03/20 03:38:57;;;;;;;19.08;10.50;;;;;;;;;;5038211;28;20400;-68
2022/03/20 03:41:27;;;;;;;16.95;10.55;;;;;;;;;;5039714;28;20065;-68
2022/03/20 03:43:55;;;;;;;20.95;10.70;;;;;;;;;;5037561;28;20041;-69
2022/03/20 03:46:24;;;;;;;17.83;10.25;;;;;;;;;;5039074;28;20041;-68
2022/03/20 03:48:52;;;;;;;21.80;10.75;;;;;;;;;;5038675;28;20047;-69
2022/03/20 03:51:22;;;;;;;20.17;11.07;;;;;;;;;;5038289;28;20045;-68
2022/03/20 03:53:52;;;;;;;18.52;10.52;;;;;;;;;;5039159;28;20038;-68
2022/03/20 03:56:21;;;;;;;17.63;10.38;;;;;;;;;;5039388;28;20052;-68
2022/03/20 03:58:51;;;;;;;20.35;10.55;;;;;;;;;;5039447;28;20052;-68
2022/03/20 04:01:26;;;;;;;20.00;10.48;;;;;;;;;;5039528;28;20037;-68
2022/03/20 04:03:56;;;;;;;19.73;10.45;;;;;;;;;;5039268;28;20050;-68
2022/03/20 04:06:24;;;;;;;23.48;10.93;;;;;;;;;;5038524;28;20040;-69
2022/03/20 04:08:53;;;;;;;16.73;10.50;;;;;;;;;;5034533;28;20046;-68
2022/03/20 04:11:21;;;;;;;18.13;9.98;;;;;;;;;;5035780;28;20601;-68
2022/03/20 04:13:49;;;;;;;18.00;10.25;;;;;;;;;;5035411;28;20045;-68
2022/03/20 04:16:16;;;;;;;18.98;10.95;;;;;;;;;;5035361;28;20057;-68
2022/03/20 04:18:44;;;;;;;18.23;10.63;;;;;;;;;;5035776;28;20096;-68
2022/03/20 04:21:11;;;;;;;19.48;10.13;;;;;;;;;;5034659;28;20128;-68
2022/03/20 04:23:49;;;;;;;17.92;9.80;;;;;;;;;;5034669;28;20120;-67
2022/03/20 04:26:20;;;;;;;20.80;10.68;;;;;;;;;;5035956;28;20077;-67
2022/03/20 04:28:48;;;;;;;19.02;10.60;;;;;;;;;;5033765;28;20042;-67
2022/03/20 04:31:17;;;;;;;20.17;10.15;;;;;;;;;;5035296;28;20069;-68
2022/03/20 04:33:50;;;;;;;19.63;10.48;;;;;;;;;;5035790;28;20062;-67
2022/03/20 04:36:27;;;;;;;18.65;10.43;;;;;;;;;;5034518;28;20480;-68
2022/03/20 04:38:56;;;;;;;17.50;10.52;;;;;;;;;;5034866;28;20462;-68
2022/03/20 04:41:26;;;;;;;17.13;9.65;;;;;;;;;;5035214;28;20041;-68
2022/03/20 04:44:03;;;;;;;16.67;10.32;;;;;;;;;;5035439;28;20038;-68
2022/03/20 04:46:31;;;;;;;18.98;10.43;;;;;;;;;;5035345;28;20033;-68
2022/03/20 05:00:25;;;;;;;17.73;10.77;;;;;;;;;;5034714;28;20057;-68
2022/03/20 05:02:58;;;;;;;18.73;10.77;;;;;;;;;;5034192;28;20041;-67
2022/03/20 05:05:32;;;;;;;20.70;10.65;;;;;;;;;;5034981;28;20361;-68
2022/03/20 05:07:59;;;;;;;20.67;11.48;;;;;;;;;;5034353;28;20607;-68
2022/03/20 05:13:20;;;;;;;20.85;12.77;;;;;;;;;;5034419;28;20042;-69
2022/03/20 05:15:49;;;;;;;19.83;10.70;;;;;;;;;;5034954;28;20041;-68
2022/03/20 05:18:19;;;;;;;16.65;10.98;;;;;;;;;;5034533;28;20077;-69
2022/03/20 05:20:47;;;;;;;19.20;10.70;;;;;;;;;;5033424;28;20499;-69
2022/03/20 05:23:15;;;;;;;21.45;11.63;;;;;;;;;;5033563;28;20115;-68
2022/03/20 05:25:43;;;;;;;17.15;10.93;;;;;;;;;;5034470;28;20045;-69
2022/03/20 05:28:15;;;;;;;17.98;10.35;;;;;;;;;;5034358;28;20087;-69
2022/03/20 05:30:44;;;;;;;19.10;11.13;;;;;;;;;;5034326;28;20045;-69
2022/03/20 05:33:38;;;;;;;20.15;11.23;;;;;;;;;;5034282;28;20095;-69
2022/03/20 05:36:31;;;;;;;17.90;10.60;;;;;;;;;;5034336;28;20045;-69
2022/03/20 05:42:17;;;;;;;17.98;12.10;;;;;;;;;;5033900;28;20052;-68
2022/03/20 05:44:51;;;;;;;16.92;11.63;;;;;;;;;;5033516;28;20034;-69
2022/03/20 05:47:19;;;;;;;15.05;10.82;;;;;;;;;;5034324;28;20088;-69
2022/03/20 05:49:46;;;;;;;12.70;9.68;;;;;;;;;;5033335;28;20049;-69
2022/03/20 05:52:19;;;;;;;17.83;11.20;;;;;;;;;;5015987;28;20073;-70
2022/03/20 05:54:49;;;;;;;15.43;10.95;;;;;;;;;;5034141;28;20037;-69
2022/03/20 06:00:16;;;;;;;14.25;10.18;;;;;;;;;;5033592;28;20045;-69
2022/03/20 06:02:43;;;;;;;15.32;10.77;;;;;;;;;;5033754;28;20069;-69
2022/03/20 06:05:18;;;;;;;18.65;11.27;;;;;;;;;;5033975;28;20049;-69
2022/03/20 06:07:46;;;;;;;16.33;10.57;;;;;;;;;;5033233;28;20037;-69
2022/03/20 06:10:15;;;;;;;17.15;11.68;;;;;;;;;;5033318;28;20113;-68
2022/03/20 06:12:44;;;;;;;14.85;10.25;;;;;;;;;;5033769;28;20033;-69
2022/03/20 06:15:12;;;;;;;15.50;10.13;;;;;;;;;;5033496;28;20041;-69
2022/03/20 06:17:42;;;;;;;13.77;10.25;;;;;;;;;;5031438;28;20040;-69
2022/03/20 06:20:10;;;;;;;14.30;10.00;;;;;;;;;;5032970;28;20584;-69
2022/03/20 06:22:38;;;;;;;15.20;10.20;;;;;;;;;;5030634;28;20041;-69
2022/03/20 06:25:08;;;;;;;15.23;11.23;;;;;;;;;;5023364;28;20044;-69
2022/03/20 06:27:42;;;;;;;12.48;10.07;;;;;;;;;;5032853;28;20045;-69
2022/03/20 06:30:11;;;;;;;15.10;10.68;;;;;;;;;;5033029;28;20049;-69
2022/03/20 06:32:39;;;;;;;13.77;10.63;;;;;;;;;;5031980;28;20049;-69
2022/03/20 06:35:07;;;;;;;15.40;10.57;;;;;;;;;;5032990;28;20049;-69
2022/03/20 06:37:36;;;;;;;13.07;10.30;;;;;;;;;;5032741;28;20835;-69
2022/03/20 06:40:05;;;;;;;13.50;10.52;;;;;;;;;;5100446;23;20060;-70
2022/03/20 06:42:33;;;;;;;13.45;10.68;;;;;;;;;;5050082;28;20045;-69
2022/03/20 06:45:01;;;;;;;15.60;12.73;;;;;;;;;;5052881;28;20054;-69
2022/03/20 06:47:32;;;;;;;14.90;10.73;;;;;;;;;;5052279;28;20029;-69
2022/03/20 06:50:00;;;;;;;13.20;10.75;;;;;;;;;;5052328;28;20540;-67
2022/03/20 06:52:30;;;;;;;14.98;11.88;;;;;;;;;;5053049;28;20060;-69
2022/03/20 06:55:00;;;;;;;13.80;11.63;;;;;;;;;;5052939;28;20045;-67
2022/03/20 06:57:28;;;;;;;14.82;11.23;;;;;;;;;;5052620;28;20041;-69
2022/03/20 06:59:59;;;;;;;15.90;11.30;;;;;;;;;;5052341;28;20467;-67
2022/03/20 07:02:30;;;;;;;12.65;10.65;;;;;;;;;;5035114;28;20048;-69
2022/03/20 07:04:58;;;;;;;12.95;11.23;;;;;;;;;;5052950;28;20517;-68
2022/03/20 07:07:25;;;;;;;11.90;9.65;;;;;;;;;;5053280;28;20048;-68
2022/03/20 07:09:57;;;;;;;10.85;8.60;;;;;;;;;;5053062;28;20065;-67
2022/03/20 07:12:25;;;;;;;14.30;10.73;;;;;;;;;;5052696;28;20049;-67
2022/03/20 07:14:54;;;;;;;16.02;12.98;;;;;;;;;;5052913;28;20041;-69
2022/03/20 07:17:30;;;;;;;17.27;11.85;;;;;;;;;;5052979;28;20064;-69
2022/03/20 07:19:59;;;;;;;12.30;8.88;;;;;;;;;;5052680;28;20059;-69
2022/03/20 07:22:27;;;;;;;11.40;9.02;;;;;;;;;;5052586;28;20395;-68
2022/03/20 07:29:29;;;;;;;10.80;8.82;;;;;;;;;;5052699;28;20465;-67
2022/03/20 07:30:31;;;;;;;10.05;8.50;;;;;;;;;;5051659;28;20120;-67
2022/03/20 07:32:59;;;;;;;10.25;8.95;;;;;;;;;;5052509;28;20087;-69
2022/03/20 07:35:28;;;;;;;10.57;8.63;;;;;;;;;;5052344;28;20133;-66
2022/03/20 07:37:56;;;;;;;9.70;8.40;;;;;;;;;;5053156;28;20072;-69
2022/03/20 07:40:24;;;;;;;13.00;7.72;;;;;;;;;;5052513;28;20049;-68
2022/03/20 07:42:52;;;;;;;10.65;7.68;;;;;;;;;;5054342;28;20132;-68
2022/03/20 07:45:22;;;;;;;10.82;8.52;;;;;;;;;;5056408;28;20041;-68
2022/03/20 07:47:50;;;;;;;10.77;7.13;;;;;;;;;;5056356;28;20053;-68
2022/03/20 07:50:20;;;;;;;11.32;7.88;;;;;;;;;;5056318;28;20037;-68
2022/03/20 07:52:50;;;;;;;10.90;7.05;;;;;;;;;;5056170;28;20510;-68
2022/03/20 07:55:22;;;;;;;11.18;7.65;;;;;;;;;;5056065;28;20037;-68
2022/03/20 07:57:51;;;;;;;10.57;6.97;;;;;;;;;;5055809;28;20033;-67
2022/03/20 08:00:20;;;;;;;13.50;7.10;;;;;;;;;;5056399;28;20045;-67
2022/03/20 08:02:49;;;;;;;11.35;6.88;;;;;;;;;;5050322;28;20111;-69
2022/03/20 08:05:20;;;;;;;12.38;8.35;;;;;;;;;;5054437;28;20069;-67
2022/03/20 08:07:47;;;;;;;11.60;7.47;;;;;;;;;;5055391;28;20043;-68
2022/03/20 08:10:40;;;;;;;11.40;6.50;;;;;;;;;;5045114;28;20086;-68
2022/03/20 08:13:12;;;;;;;10.48;5.88;;;;;;;;;;5054438;28;20087;-68
2022/03/20 08:15:43;;;;;;;10.15;6.35;;;;;;;;;;5054213;28;20045;-68
2022/03/20 08:18:11;;;;;;;11.95;5.85;;;;;;;;;;5053010;28;20120;-67
2022/03/20 08:20:41;;;;;;;9.02;6.18;;;;;;;;;;5054755;28;20483;-68
2022/03/20 08:23:10;;;;;;;10.32;6.60;;;;;;;;;;5053557;28;20063;-69
2022/03/20 08:25:42;;;;;;;11.80;6.32;;;;;;;;;;5053303;28;20052;-68
2022/03/20 08:28:11;;;;;;;9.00;5.78;;;;;;;;;;5055628;28;20135;-68
2022/03/20 08:30:42;;;;;;;9.43;5.65;;;;;;;;;;5056196;28;20049;-67
2022/03/20 08:33:10;;;;;;;9.68;5.78;;;;;;;;;;5054408;28;20487;-67
2022/03/20 08:35:38;;;;;;;11.38;6.43;;;;;;;;;;5054522;28;20040;-68
2022/03/20 08:38:09;;;;;;;12.45;7.38;;;;;;;;;;5035891;28;20053;-68
2022/03/20 08:40:40;;;;;;;9.68;6.45;;;;;;;;;;5052614;28;20494;-78
2022/03/20 08:43:15;;;;;;;10.77;6.65;;;;;;;;;;5056321;28;20052;-76
2022/03/20 08:45:50;;;;;;;11.02;6.57;;;;;;;;;;5038494;28;20103;-78
2022/03/20 08:48:19;;;;;;;8.82;6.28;;;;;;;;;;5056245;28;20414;-78
2022/03/20 08:50:53;;;;;;;12.73;7.63;;;;;;;;;;5055312;28;20041;-77
2022/03/20 08:53:52;;;;;;;8.57;5.97;;;;;;;;;;5038667;28;20041;-78
2022/03/20 08:56:49;;;;;;;16.13;9.80;;;;;;;;;;5054308;28;20041;-78
2022/03/20 08:59:44;;;;;;;10.13;6.22;;;;;;;;;;5054803;28;20041;-78
2022/03/20 09:02:36;;;;;;;11.68;7.43;;;;;;;;;;5053982;28;20060;-77
2022/03/20 09:05:45;;;;;;;19.20;12.55;;;;;;;;;;5034989;28;20065;-76
2022/03/20 09:08:18;;;;;;;10.57;6.22;;;;;;;;;;5034491;28;20083;-77
2022/03/20 09:10:59;;;;;;;10.63;6.35;;;;;;;;;;5037000;28;20450;-79
2022/03/20 09:13:27;;;;;;;19.25;12.45;;;;;;;;;;5047818;28;20048;-75
2022/03/20 09:19:32;;;;;;;10.45;6.15;;;;;;;;;;5034435;28;20064;-75
2022/03/20 09:21:59;;;;;;;39.08;23.15;;;;;;;;;;5034611;28;20390;-74
2022/03/20 09:24:28;;;;;;;12.35;7.28;;;;;;;;;;5034591;28;20049;-75
2022/03/20 09:27:02;;;;;;;15.20;10.45;;;;;;;;;;5033015;28;20068;-75
2022/03/20 09:29:36;;;;;;;12.90;7.07;;;;;;;;;;5034425;28;20376;-75
2022/03/20 09:32:04;;;;;;;15.77;7.90;;;;;;;;;;5034508;28;20113;-75
2022/03/20 09:34:34;;;;;;;44.47;26.02;;;;;;;;;;5034322;28;20038;-75
2022/03/20 09:37:02;;;;;;;35.63;20.63;;;;;;;;;;5047963;28;20095;-77
2022/03/20 09:39:30;;;;;;;16.35;10.18;;;;;;;;;;5053797;28;20036;-77
2022/03/20 09:41:59;;;;;;;12.07;7.15;;;;;;;;;;5052877;28;20049;-76
2022/03/20 09:44:53;;;;;;;12.02;6.53;;;;;;;;;;5053747;28;20040;-76
2022/03/20 09:51:04;;;;;;;15.55;7.85;;;;;;;;;;5052747;28;20052;-77
2022/03/20 09:53:32;;;;;;;14.98;8.60;;;;;;;;;;5047593;28;20395;-76
2022/03/20 09:56:05;;;;;;;22.45;13.82;;;;;;;;;;5050888;28;20053;-76
2022/03/20 09:58:37;;;;;;;11.88;6.88;;;;;;;;;;5053992;28;20048;-77
2022/03/20 10:01:04;;;;;;;14.00;8.70;;;;;;;;;;5053775;28;20053;-77
2022/03/20 10:07:33;;;;;;;10.70;6.20;;;;;;;;;;5053087;28;20107;-77
2022/03/20 10:10:22;;;;;;;14.38;8.65;;;;;;;;;;5053773;28;20052;-76
2022/03/20 10:12:59;;;;;;;14.15;7.72;;;;;;;;;;5053660;28;20091;-76
2022/03/20 10:15:35;;;;;;;12.10;8.00;;;;;;;;;;5049482;28;20131;-76
2022/03/20 10:18:20;;;;;;;14.52;9.25;;;;;;;;;;5054738;28;20068;-77
2022/03/20 10:21:19;;;;;;;25.08;14.80;;;;;;;;;;5047947;28;20045;-76
2022/03/20 10:23:47;;;;;;;42.03;25.08;;;;;;;;;;5052866;28;20498;-76
2022/03/20 10:26:16;;;;;;;70.57;38.58;;;;;;;;;;5051734;28;20041;-77
2022/03/20 10:28:52;;;;;;;12.07;7.45;;;;;;;;;;5052102;28;20502;-76
2022/03/20 10:31:21;;;;;;;14.25;7.85;;;;;;;;;;5053531;28;20041;-75
2022/03/20 10:34:02;;;;;;;15.18;10.20;;;;;;;;;;5053421;28;20049;-75
2022/03/20 10:36:30;;;;;;;26.13;16.10;;;;;;;;;;5053086;28;20037;-76
2022/03/20 10:39:00;;;;;;;14.93;9.32;;;;;;;;;;5053586;28;20049;-76
2022/03/20 10:41:34;;;;;;;34.10;19.42;;;;;;;;;;5053243;28;20160;-76
2022/03/20 10:44:27;;;;;;;10.73;7.18;;;;;;;;;;5035336;28;20456;-77
2022/03/20 10:47:10;;;;;;;17.20;10.25;;;;;;;;;;5053328;28;20049;-76
2022/03/20 10:49:42;;;;;;;13.60;7.68;;;;;;;;;;5053142;28;20048;-77
2022/03/20 10:52:30;;;;;;;21.23;12.25;;;;;;;;;;5053162;28;20044;-77
2022/03/20 10:55:00;;;;;;;21.67;12.07;;;;;;;;;;5053436;28;20056;-75
2022/03/20 10:57:34;;;;;;;24.40;13.43;;;;;;;;;;5052971;28;20049;-75
2022/03/20 11:00:10;;;;;;;14.40;8.32;;;;;;;;;;5053377;28;20102;-77
2022/03/20 11:02:39;;;;;;;15.63;8.23;;;;;;;;;;5049928;28;20049;-78
2022/03/20 11:05:09;;;;;;;15.40;10.10;;;;;;;;;;5053465;28;20087;-80
2022/03/20 11:07:37;;;;;;;13.23;7.43;;;;;;;;;;5052497;28;20048;-79
2022/03/20 11:10:11;;;;;;;12.20;7.38;;;;;;;;;;5051538;28;20033;-79
2022/03/20 11:12:42;;;;;;;13.77;10.27;;;;;;;;;;5049235;28;20068;-78
2022/03/20 11:15:10;;;;;;;11.43;7.25;;;;;;;;;;5049382;28;20037;-79
2022/03/20 11:17:39;;;;;;;15.13;8.43;;;;;;;;;;5051481;28;20033;-78
2022/03/20 11:20:08;;;;;;;13.95;7.75;;;;;;;;;;5055766;28;20040;-79
2022/03/20 11:22:38;;;;;;;20.67;12.15;;;;;;;;;;5056812;28;20040;-78
2022/03/20 11:25:07;;;;;;;14.65;8.75;;;;;;;;;;5056439;28;20060;-78
2022/03/20 11:27:36;;;;;;;62.75;31.90;;;;;;;;;;5053884;28;20082;-78
2022/03/20 11:30:06;;;;;;;13.40;8.80;;;;;;;;;;5055417;28;20471;-78
2022/03/20 11:32:35;;;;;;;17.30;10.45;;;;;;;;;;5055572;28;20167;-75
2022/03/20 11:35:04;;;;;;;13.95;8.32;;;;;;;;;;5036455;28;20132;-67
2022/03/20 11:37:43;;;;;;;22.35;13.73;;;;;;;;;;5036848;28;20037;-67
2022/03/20 11:40:12;;;;;;;13.88;7.63;;;;;;;;;;5036017;28;20506;-66
2022/03/20 11:42:41;;;;;;;15.85;7.93;;;;;;;;;;5043469;28;20117;-67
2022/03/20 11:45:16;;;;;;;14.63;7.75;;;;;;;;;;5056712;28;20049;-67
2022/03/20 11:47:50;;;;;;;17.52;10.43;;;;;;;;;;5056763;28;20124;-68
2022/03/20 11:50:19;;;;;;;15.77;9.75;;;;;;;;;;5055503;28;20131;-67
2022/03/20 11:52:55;;;;;;;17.60;9.43;;;;;;;;;;5055665;28;20491;-67
2022/03/20 11:55:27;;;;;;;35.83;15.13;;;;;;;;;;5056136;28;20049;-67
2022/03/20 11:57:56;;;;;;;23.63;11.35;;;;;;;;;;5056307;28;20065;-66
2022/03/20 12:00:28;;;;;;;15.75;9.50;;;;;;;;;;5056441;28;20465;-67
2022/03/20 12:02:56;;;;;;;15.90;8.88;;;;;;;;;;5055931;28;20071;-67
2022/03/20 12:05:44;;;;;;;14.55;8.85;;;;;;;;;;5056318;28;20395;-67
2022/03/20 12:08:28;;;;;;;12.38;8.63;;;;;;;;;;5055826;28;20132;-66
2022/03/20 12:10:56;;;;;;;27.57;14.90;;;;;;;;;;5055237;28;20043;-66
2022/03/20 12:13:42;;;;;;;13.55;8.00;;;;;;;;;;5054584;28;20768;-67
2022/03/20 12:16:10;;;;;;;16.52;8.43;;;;;;;;;;5055200;28;20049;-65
2022/03/20 12:18:58;;;;;;;12.45;7.15;;;;;;;;;;5047360;28;20059;-66
2022/03/20 12:21:45;;;;;;;11.55;7.20;;;;;;;;;;5038569;28;20430;-67
2022/03/20 12:24:31;;;;;;;10.63;6.40;;;;;;;;;;5055582;28;20132;-66
2022/03/20 12:27:19;;;;;;;9.57;6.40;;;;;;;;;;5054093;28;20486;-67
2022/03/20 12:29:47;;;;;;;10.88;7.63;;;;;;;;;;5051971;28;20044;-67
2022/03/20 12:32:20;;;;;;;12.80;7.07;;;;;;;;;;5054712;28;20418;-66
2022/03/20 12:34:59;;;;;;;11.57;7.07;;;;;;;;;;5075466;28;20402;-67
2022/03/20 12:37:39;;;;;;;13.85;8.18;;;;;;;;;;5058043;28;20048;-66
2022/03/20 12:40:11;;;;;;;11.45;7.22;;;;;;;;;;5074519;28;20048;-67
2022/03/20 12:43:07;;;;;;;15.75;7.55;;;;;;;;;;5075082;28;20111;-66
2022/03/20 12:45:48;;;;;;;13.00;8.35;;;;;;;;;;5075466;28;20082;-66
2022/03/20 12:48:17;;;;;;;19.23;9.80;;;;;;;;;;5075623;28;20098;-66
2022/03/20 12:50:47;;;;;;;38.60;12.45;;;;;;;;;;5074939;28;20122;-66
2022/03/20 12:53:23;;;;;;;17.08;8.15;;;;;;;;;;5075489;28;20411;-67
2022/03/20 12:56:01;;;;;;;23.67;10.25;;;;;;;;;;5075178;28;20041;-66
2022/03/20 12:58:29;;;;;;;16.98;8.60;;;;;;;;;;5067247;28;20037;-66
2022/03/20 13:01:10;;;;;;;18.00;10.70;;;;;;;;;;5055262;28;20048;-66
2022/03/20 13:03:42;;;;;;;16.38;10.10;;;;;;;;;;5054927;28;20041;-67
2022/03/20 13:06:10;;;;;;;27.52;10.77;;;;;;;;;;5054940;28;20040;-66
2022/03/20 13:08:39;;;;;;;28.45;10.30;;;;;;;;;;5054328;28;20506;-67
2022/03/20 13:14:14;;;;;;;16.63;8.63;;;;;;;;;;5054887;28;20076;-66
2022/03/20 13:16:52;;;;;;;18.25;9.88;;;;;;;;;;5055045;28;20094;-66
2022/03/20 13:19:26;;;;;;;16.50;10.32;;;;;;;;;;5054911;28;20041;-66
2022/03/20 13:21:55;;;;;;;25.88;12.27;;;;;;;;;;5054711;28;20119;-66
2022/03/20 13:24:29;;;;;;;19.08;9.88;;;;;;;;;;5054032;28;20029;-66
2022/03/20 13:27:20;;;;;;;19.33;11.60;;;;;;;;;;5054723;28;20480;-66
2022/03/20 13:30:27;;;;;;;16.48;9.50;;;;;;;;;;5054435;28;20053;-67
2022/03/20 13:36:38;;;;;;;16.85;10.85;;;;;;;;;;5054233;28;20352;-67
2022/03/20 13:42:29;;;;;;;15.93;11.25;;;;;;;;;;5054475;28;20124;-66
2022/03/20 13:45:00;;;;;;;16.40;10.30;;;;;;;;;;5054226;28;20483;-66
2022/03/20 13:47:31;;;;;;;15.40;11.00;;;;;;;;;;5053492;28;20088;-67
2022/03/20 13:50:00;;;;;;;18.38;10.98;;;;;;;;;;5051856;28;20087;-66
2022/03/20 13:52:29;;;;;;;19.50;10.57;;;;;;;;;;5053763;28;20407;-66
2022/03/20 13:55:07;;;;;;;16.50;11.00;;;;;;;;;;5053240;28;20033;-66
2022/03/20 13:57:47;;;;;;;22.30;11.30;;;;;;;;;;5039215;28;20132;-66
2022/03/20 14:00:15;;;;;;;19.90;11.32;;;;;;;;;;5054047;28;20464;-66
2022/03/20 14:02:47;;;;;;;16.08;10.45;;;;;;;;;;5053991;28;20055;-65
2022/03/20 14:05:27;;;;;;;18.55;11.32;;;;;;;;;;5053687;28;20499;-67
2022/03/20 14:08:21;;;;;;;15.63;10.75;;;;;;;;;;5054245;28;20047;-66
2022/03/20 14:10:51;;;;;;;16.48;11.05;;;;;;;;;;5052607;28;20088;-66
2022/03/20 14:13:31;;;;;;;15.27;10.48;;;;;;;;;;5054175;28;20366;-66
2022/03/20 14:16:06;;;;;;;17.83;11.38;;;;;;;;;;5053852;28;20067;-67
2022/03/20 14:18:33;;;;;;;;;;;;;;;;;;5053426;28;20053;-67
2022/03/20 14:21:12;;;;;;;23.30;13.98;;;;;;;;;;5053699;28;20317;-67
2022/03/20 14:23:59;;;;;;;17.80;10.90;;;;;;;;;;5053279;28;20540;-67
2022/03/20 14:26:32;;;;;;;21.77;12.20;;;;;;;;;;5053305;28;20052;-66
2022/03/20 14:29:03;;;;;;;42.28;15.95;;;;;;;;;;5053322;28;20076;-67
2022/03/20 14:40:15;;;;;;;15.55;10.02;;;;;;;;;;5052843;28;20045;-66
2022/03/20 14:42:46;;;;;;;20.88;10.88;;;;;;;;;;5053540;28;20045;-66
2022/03/20 14:45:17;;;;;;;15.70;10.55;;;;;;;;;;5053297;28;20127;-66
2022/03/20 14:48:10;;;;;;;15.50;10.43;;;;;;;;;;5093757;22;20100;-66
2022/03/20 14:50:40;;;;;;;16.17;10.82;;;;;;;;;;5014399;28;20116;-66
2022/03/20 14:53:08;;;;;;;18.35;10.77;;;;;;;;;;5011760;28;20042;-67
2022/03/20 14:55:36;;;;;;;16.05;10.70;;;;;;;;;;5012280;28;20054;-66
2022/03/20 14:58:03;;;;;;;20.65;11.05;;;;;;;;;;5015923;28;20555;-65
2022/03/20 15:00:31;;;;;;;17.73;10.77;;;;;;;;;;5012494;28;20045;-65
2022/03/20 15:03:01;;;;;;;18.52;11.02;;;;;;;;;;5011702;28;20038;-66
2022/03/20 15:05:30;;;;;;;20.10;9.88;;;;;;;;;;5013694;28;20042;-66
2022/03/20 15:13:33;;;;;;;28.48;14.82;;;;;;;;;;5013138;28;20073;-66
2022/03/20 15:16:01;;;;;;;17.45;11.73;;;;;;;;;;5013129;28;20069;-68
2022/03/20 15:18:33;;;;;;;19.88;12.00;;;;;;;;;;5013453;28;20056;-65
2022/03/20 15:21:02;;;;;;;19.33;12.00;;;;;;;;;;5013768;28;20044;-65
2022/03/20 15:23:30;;;;;;;19.75;12.70;;;;;;;;;;5013522;28;20400;-66
2022/03/20 15:25:57;;;;;;;15.13;10.63;;;;;;;;;;5013064;28;20034;-65
2022/03/20 15:28:25;;;;;;;19.05;11.00;;;;;;;;;;5013230;28;20392;-65
2022/03/20 15:30:55;;;;;;;18.55;10.95;;;;;;;;;;5012380;28;20480;-65
2022/03/20 15:33:26;;;;;;;24.30;13.30;;;;;;;;;;5012761;28;20038;-66
2022/03/20 15:35:53;;;;;;;19.08;11.90;;;;;;;;;;5020004;28;20072;-66
2022/03/20 15:38:21;;;;;;;18.80;12.35;;;;;;;;;;5024665;28;20033;-66
2022/03/20 15:40:49;;;;;;;22.63;13.43;;;;;;;;;;5029767;28;20463;-66
2022/03/20 15:43:18;;;;;;;32.33;19.20;;;;;;;;;;5033043;28;20409;-66
2022/03/20 15:45:46;;;;;;;23.17;14.05;;;;;;;;;;5031587;28;20121;-68
2022/03/20 15:48:19;;;;;;;45.63;25.02;;;;;;;;;;5031229;28;20037;-66
2022/03/20 15:50:48;;;;;;;30.95;16.20;;;;;;;;;;5052579;28;20045;-66
2022/03/20 15:53:17;;;;;;;32.80;17.50;;;;;;;;;;5052858;28;20045;-65
2022/03/20 15:56:04;;;;;;;42.88;21.73;;;;;;;;;;5048865;28;20102;-65